AA1866 / N717UW 7700 Squawk Report (14th of October, 2018)

Aircraft A319 Reg No. N717UW Age 19 years old
Model A319 Jet engines 2 First flight 03-08-99
Registered 08-04-15 Rollout 07-99 Delivered 08-09-99
Construction No. 1069 Line No. N/A Series 112
ADSHEX A997E5 Airline name American Airlines Owner Wells Fargo Trust Co NA Trustee
Airfield based Philadelphia International~PA~N First tracked N/A

Flight history for N717UW

Route Flight No Date Playback
Charlotte Douglas Intl (CLT) - Jacksonville Intl (JAX) AA2004 2018-11-16 02:40:00
Charlotte Douglas Intl (CLT) - Detroit Metro Wayne Co (DTW) - Charlotte Douglas Intl (CLT) AA1967 2018-11-16 01:50:00
Detroit Metro Wayne Co (DTW) - Charlotte Douglas Intl (CLT) AA1998 2018-11-15 19:21:00
Memphis Intl (MEM) - Charlotte Douglas Intl (CLT) AA538 2018-11-15 15:02:00
Charlotte Douglas Intl (CLT) - Memphis Intl (MEM) AA1964 2018-11-15 12:21:00
Licenciado Benito Juarez Intl (MEX) - Charlotte Douglas Intl (CLT) AA828 2018-11-14 23:07:00
Charlotte Douglas Intl (CLT) - Licenciado Benito Juarez Intl (MEX) AA1863 2018-11-14 19:54:00
Lambert St Louis Intl (STL) - Charlotte Douglas Intl (CLT) AA1894 2018-11-14 15:02:00
Charlotte Douglas Intl (CLT) - Lambert St Louis Intl (STL) AA1974 2018-11-14 11:30:00
Charlotte Douglas Intl (CLT) - Lambert St Louis Intl (STL) - Charlotte Douglas Intl (CLT) AA1706 2018-11-14 02:31:00
Charleston Afb Intl (CHS) - Charlotte Douglas Intl (CLT) AA1726 2018-11-13 22:13:00
Charlotte Douglas Intl (CLT) - Bradley Intl (BDL) - Charlotte Douglas Intl (CLT) AA622 2018-11-13 18:43:00
Pittsburgh Intl (PIT) - Charlotte Douglas Intl (CLT) AA468 2018-11-13 12:55:00
Charlotte Douglas Intl (CLT) - Pittsburgh Intl (PIT) AA1749 2018-11-13 09:55:00
Charlotte Douglas Intl (CLT) - Detroit Metro Wayne Co (DTW) - Charlotte Douglas Intl (CLT) AA1967 2018-11-13 00:11:00
Kansas City Intl (MCI) - Charlotte Douglas Intl (CLT) AA612 2018-11-12 20:25:00
Jacksonville Intl (JAX) - Charlotte Douglas Intl (CLT) AA1973 2018-11-12 13:20:00
Charlotte Douglas Intl (CLT) - Jacksonville Intl (JAX) AA1913 2018-11-12 10:27:00
Charlotte Douglas Intl (CLT) - Southwest Florida Intl (RSW) - Charlotte Douglas Intl (CLT) AA569 2018-11-12 03:42:00
???? N/A 2018-11-11 21:51:00
Time Lat Lon Altitude Heading Speed Vertical Rate
2018-10-14 13:40:25 GMT 33.646820 -84.487389 1,650 90 130 -640
2018-10-14 13:40:10 GMT 33.646889 -84.498199 1,825 90 133 -704
2018-10-14 13:40:03 GMT 33.646912 -84.503197 1,900 90 135 -640
2018-10-14 13:39:52 GMT 33.646820 -84.511375 2,000 88 141 -832
2018-10-14 13:39:36 GMT 33.646702 -84.524513 2,225 90 146 -832
2018-10-14 13:39:31 GMT 33.646702 -84.528580 2,300 90 148 -832
2018-10-14 13:39:00 GMT 33.648376 -84.556160 2,625 107 173 -320
2018-10-14 13:38:47 GMT 33.652615 -84.567146 2,675 121 173 -576
2018-10-14 13:38:36 GMT 33.657257 -84.576286 2,875 121 176 -1344
2018-10-14 13:38:27 GMT 33.660919 -84.583458 3,100 121 179 -1536
2018-10-14 13:38:17 GMT 33.665508 -84.592834 3,375 119 183 -1408
2018-10-14 13:38:05 GMT 33.669891 -84.602966 3,600 114 188 -1152
2018-10-14 13:37:56 GMT 33.673187 -84.612495 3,775 113 188 -1024
2018-10-14 13:37:44 GMT 33.678085 -84.622925 3,950 134 179 -1088
2018-10-14 13:37:35 GMT 33.683990 -84.628189 4,150 160 167 -1728
2018-10-14 13:37:24 GMT 33.691998 -84.630142 4,425 172 169 -1216
2018-10-14 13:37:13 GMT 33.701073 -84.631462 4,625 172 178 -1280
2018-10-14 13:37:00 GMT 33.711639 -84.632896 4,800 175 184 -320
2018-10-14 13:36:52 GMT 33.718670 -84.633064 4,825 185 191 0
2018-10-14 13:36:41 GMT 33.728352 -84.629349 4,825 213 202 0
2018-10-14 13:36:30 GMT 33.735260 -84.620850 4,800 239 215 0
2018-10-14 13:36:20 GMT 33.738693 -84.608292 4,825 264 232 -64
2018-10-14 13:36:10 GMT 33.738510 -84.594894 4,800 274 248 64
2018-10-14 13:35:58 GMT 33.737778 -84.579086 4,800 274 260 0
2018-10-14 13:35:48 GMT 33.737057 -84.564339 4,800 274 264 64
2018-10-14 13:35:38 GMT 33.736267 -84.548660 4,800 274 263 128
2018-10-14 13:35:27 GMT 33.735477 -84.533096 4,800 274 260 -256
2018-10-14 13:35:16 GMT 33.734825 -84.516907 4,950 273 260 -1408
2018-10-14 13:35:05 GMT 33.734310 -84.501114 5,250 273 258 -2048
2018-10-14 13:34:55 GMT 33.733845 -84.486633 5,650 273 257 -2752
2018-10-14 13:34:43 GMT 33.733334 -84.470901 6,175 273 255 -2624
2018-10-14 13:34:34 GMT 33.732880 -84.457115 6,575 272 258 -2112
2018-10-14 13:34:23 GMT 33.732559 -84.441704 6,950 272 263 -2176
2018-10-14 13:34:12 GMT 33.732357 -84.425873 7,350 271 265 -2432
2018-10-14 13:34:01 GMT 33.732216 -84.409737 7,825 271 265 -2880
2018-10-14 13:33:50 GMT 33.732265 -84.393478 8,375 270 264 -2624
2018-10-14 13:33:40 GMT 33.732422 -84.378471 8,775 270 266 -2240
2018-10-14 13:33:30 GMT 33.732590 -84.363327 9,200 270 269 -2560
2018-10-14 13:33:18 GMT 33.732777 -84.346046 9,750 270 268 -3200
2018-10-14 13:33:08 GMT 33.732914 -84.331741 10,275 270 265 -3200
2018-10-14 13:32:57 GMT 33.733055 -84.315887 10,875 270 260 -3392
2018-10-14 13:32:47 GMT 33.733200 -84.300957 11,375 268 258 -2368
2018-10-14 13:32:36 GMT 33.735168 -84.285538 11,700 252 265 -1152
2018-10-14 13:32:26 GMT 33.740643 -84.271484 11,800 237 274 -64
2018-10-14 13:32:15 GMT 33.749359 -84.258804 11,825 226 280 0
2018-10-14 13:32:04 GMT 33.759266 -84.246773 11,825 226 284 -64
2018-10-14 13:31:54 GMT 33.768997 -84.235039 11,825 226 289 128
2018-10-14 13:31:47 GMT 33.775974 -84.226624 11,800 226 299 0
2018-10-14 13:31:44 GMT 33.779003 -84.222961 11,825 226 300 0
2018-10-14 13:31:33 GMT 33.789803 -84.209976 11,825 225 313 -64
2018-10-14 13:31:22 GMT 33.801086 -84.196472 11,850 225 325 -128
2018-10-14 13:31:11 GMT 33.812531 -84.182854 11,850 225 341 -64
2018-10-14 13:31:00 GMT 33.825184 -84.167747 11,825 225 356 64
2018-10-14 13:30:50 GMT 33.837479 -84.153030 11,800 225 374 128
2018-10-14 13:30:38 GMT 33.852356 -84.135155 11,825 225 387 -64
2018-10-14 13:30:28 GMT 33.865128 -84.119789 11,825 226 387 64
2018-10-14 13:30:18 GMT 33.878578 -84.103600 11,800 226 388 64
2018-10-14 13:30:07 GMT 33.892319 -84.086830 11,800 226 388 64
2018-10-14 13:29:56 GMT 33.905914 -84.070297 11,775 226 390 128
2018-10-14 13:29:45 GMT 33.919601 -84.053596 11,800 226 391 -256
2018-10-14 13:29:35 GMT 33.933014 -84.037285 11,925 226 392 -1088
2018-10-14 13:29:29 GMT 33.940353 -84.028473 12,050 225 391 -1600
2018-10-14 13:29:24 GMT 33.947021 -84.020523 12,225 225 390 -1856
2018-10-14 13:29:13 GMT 33.960388 -84.004433 12,600 226 386 -2688
2018-10-14 13:29:02 GMT 33.974167 -83.987846 13,100 225 388 -2752
2018-10-14 13:28:52 GMT 33.987698 -83.971596 13,500 226 391 -2048
2018-10-14 13:28:44 GMT 33.997833 -83.959312 13,750 226 394 -1024
2018-10-14 13:28:41 GMT 34.001289 -83.955055 13,800 226 395 -704
2018-10-14 13:28:35 GMT 34.010834 -83.943504 13,825 226 396 128
2018-10-14 13:28:30 GMT 34.015347 -83.938004 13,825 226 396 128
2018-10-14 13:28:24 GMT 34.024284 -83.927193 13,825 226 395 64
2018-10-14 13:28:19 GMT 34.029545 -83.920784 13,825 226 395 0
2018-10-14 13:28:13 GMT 34.039135 -83.909225 13,800 226 395 0
2018-10-14 13:28:09 GMT 34.043243 -83.904213 13,800 226 396 64
2018-10-14 13:28:02 GMT 34.051800 -83.893890 13,800 226 396 -64
2018-10-14 13:27:58 GMT 34.056702 -83.887901 13,800 226 396 -64
2018-10-14 13:27:51 GMT 34.066269 -83.876244 13,825 226 395 -64
2018-10-14 13:27:47 GMT 34.070755 -83.870750 13,825 226 395 0
2018-10-14 13:27:42 GMT 34.077713 -83.862289 13,825 226 395 0
2018-10-14 13:27:36 GMT 34.084663 -83.853836 13,825 226 395 128
2018-10-14 13:27:30 GMT 34.093697 -83.842850 13,800 226 398 0
2018-10-14 13:27:26 GMT 34.098358 -83.837227 13,825 226 397 -64
2018-10-14 13:27:22 GMT 34.102890 -83.831680 13,825 226 398 64
2018-10-14 13:27:15 GMT 34.112225 -83.820358 13,825 226 398 64
2018-10-14 13:27:04 GMT 34.126423 -83.803200 13,800 226 399 0
2018-10-14 13:27:01 GMT 34.131401 -83.797188 13,800 226 400 0
2018-10-14 13:26:51 GMT 34.143814 -83.782127 13,825 225 398 -64
2018-10-14 13:26:43 GMT 34.159882 -83.762733 13,825 226 398 0
2018-10-14 13:26:32 GMT 34.168598 -83.752213 13,825 225 398 0
2018-10-14 13:26:29 GMT 34.174896 -83.744743 13,825 224 397 0
2018-10-14 13:26:22 GMT 34.182190 -83.736305 13,825 224 396 0
2018-10-14 13:26:18 GMT 34.186478 -83.731461 13,825 224 397 0
2018-10-14 13:26:10 GMT 34.197510 -83.719070 13,800 224 396 0
2018-10-14 13:26:06 GMT 34.203930 -83.711815 13,800 224 398 -64
2018-10-14 13:26:00 GMT 34.211472 -83.703323 13,825 224 397 0
2018-10-14 13:25:49 GMT 34.228546 -83.684151 13,825 224 396 64
2018-10-14 13:25:38 GMT 34.240997 -83.670082 13,800 224 395 0
2018-10-14 13:25:26 GMT 34.256535 -83.652596 13,800 224 396 -64
2018-10-14 13:25:20 GMT 34.266037 -83.641830 13,825 224 396 0
2018-10-14 13:25:11 GMT 34.277069 -83.629440 13,825 224 394 0
2018-10-14 13:25:05 GMT 34.284557 -83.621002 13,825 223 394 0
2018-10-14 13:24:58 GMT 34.294876 -83.609428 13,800 224 394 0
2018-10-14 13:24:55 GMT 34.298996 -83.604721 13,825 224 394 -64
2018-10-14 13:24:52 GMT 34.302994 -83.600235 13,825 224 394 0
2018-10-14 13:24:41 GMT 34.316620 -83.584824 13,825 224 394 0
2018-10-14 13:24:33 GMT 34.327423 -83.572662 13,825 224 394 0
2018-10-14 13:24:22 GMT 34.342346 -83.555847 13,825 224 393 0
2018-10-14 13:24:10 GMT 34.358997 -83.537003 13,825 224 394 0
2018-10-14 13:24:01 GMT 34.371006 -83.523445 13,800 224 396 0
2018-10-14 13:23:50 GMT 34.385391 -83.507195 13,825 224 397 0
2018-10-14 13:23:38 GMT 34.402012 -83.488426 13,825 224 396 0
2018-10-14 13:23:29 GMT 34.414021 -83.474754 13,825 224 395 0
2018-10-14 13:23:17 GMT 34.428772 -83.458092 13,825 224 396 64
2018-10-14 13:23:07 GMT 34.442276 -83.442734 13,800 224 396 -64
2018-10-14 13:22:54 GMT 34.461178 -83.421249 13,825 224 395 -64
2018-10-14 13:22:43 GMT 34.475189 -83.405289 13,825 224 395 0
2018-10-14 13:22:36 GMT 34.486408 -83.392586 13,825 224 395 0
2018-10-14 13:22:33 GMT 34.488037 -83.390755 13,825 224 395 64
2018-10-14 13:22:29 GMT 34.494049 -83.383934 13,800 224 396 0
2018-10-14 13:22:26 GMT 34.497253 -83.380348 13,800 224 396 0
2018-10-14 13:22:21 GMT 34.506474 -83.369865 13,825 224 396 -128
2018-10-14 13:22:14 GMT 34.515976 -83.359100 13,850 224 394 -128
2018-10-14 13:22:11 GMT 34.520050 -83.354393 13,850 224 391 128
2018-10-14 13:22:00 GMT 34.534149 -83.338364 13,825 224 390 -64
2018-10-14 13:21:48 GMT 34.548649 -83.321800 13,825 224 391 0
2018-10-14 13:21:43 GMT 34.554474 -83.315208 13,825 224 391 -64
2018-10-14 13:21:39 GMT 34.561203 -83.307533 13,825 224 390 -64
2018-10-14 13:21:35 GMT 34.567017 -83.300919 13,825 224 390 -64
2018-10-14 13:21:27 GMT 34.577698 -83.288727 13,825 224 390 -128
2018-10-14 13:21:23 GMT 34.580585 -83.285461 13,825 224 390 0
2018-10-14 13:21:16 GMT 34.591526 -83.272987 13,825 224 391 0
2018-10-14 13:21:13 GMT 34.596413 -83.267441 13,825 224 390 64
2018-10-14 13:21:06 GMT 34.604874 -83.257812 13,800 224 391 -64
2018-10-14 13:21:02 GMT 34.608170 -83.254059 13,825 224 392 -128
2018-10-14 13:20:53 GMT 34.622250 -83.238029 13,825 224 392 256
2018-10-14 13:20:45 GMT 34.632706 -83.226089 13,775 224 395 128
2018-10-14 13:20:42 GMT 34.635727 -83.222610 13,775 224 395 64
2018-10-14 13:20:32 GMT 34.650227 -83.205986 13,800 224 400 -256
2018-10-14 13:20:20 GMT 34.664192 -83.189964 13,925 224 398 -1024
2018-10-14 13:20:09 GMT 34.678997 -83.172852 14,200 224 396 -1792
2018-10-14 13:19:59 GMT 34.692627 -83.157310 14,650 224 396 -2752
2018-10-14 13:19:49 GMT 34.708233 -83.139496 15,000 224 404 -1792
2018-10-14 13:19:37 GMT 34.723297 -83.122108 15,350 224 410 -2944
2018-10-14 13:19:28 GMT 34.737186 -83.106308 16,100 224 410 -4288
2018-10-14 13:19:17 GMT 34.752594 -83.088928 16,875 224 408 -4096
2018-10-14 13:19:07 GMT 34.764977 -83.074783 17,575 224 409 -3328
2018-10-14 13:18:57 GMT 34.778759 -83.058868 18,025 224 411 -3328
2018-10-14 13:18:50 GMT 34.786926 -83.049469 18,375 224 412 -3392
2018-10-14 13:18:47 GMT 34.793888 -83.041473 18,625 224 415 -3200
2018-10-14 13:18:44 GMT 34.797424 -83.037476 18,750 224 418 -2880
2018-10-14 13:18:38 GMT 34.803989 -83.029922 19,000 224 418 -2752
2018-10-14 13:18:34 GMT 34.812332 -83.020317 19,250 224 422 -2752
2018-10-14 13:18:29 GMT 34.817184 -83.014771 19,425 224 434 -3584
2018-10-14 13:18:26 GMT 34.823639 -83.007370 19,650 224 427 -2944
2018-10-14 13:18:21 GMT 34.829128 -83.001083 19,825 224 428 -3200
2018-10-14 13:18:15 GMT 34.837921 -82.990944 20,175 224 431 -3520
2018-10-14 13:18:10 GMT 34.847656 -82.979797 20,600 224 433 -3712
2018-10-14 13:18:05 GMT 34.854218 -82.972237 20,875 224 434 -3584
2018-10-14 13:17:58 GMT 34.864059 -82.961014 21,250 224 437 -3648
2018-10-14 13:17:53 GMT 34.875633 -82.947578 21,700 224 439 -3520
2018-10-14 13:17:50 GMT 34.875633 -82.947578 21,700 224 439 -3520
2018-10-14 13:17:44 GMT 34.884521 -82.937363 22,075 224 442 -4032
2018-10-14 13:17:36 GMT 34.894638 -82.925705 22,675 224 447 -3264
2018-10-14 13:17:33 GMT 34.900024 -82.919540 22,725 224 444 -3712
2018-10-14 13:17:23 GMT 34.916691 -82.900375 23,325 224 448 -3008
2018-10-14 13:17:12 GMT 34.931717 -82.883156 23,725 224 452 -1984
2018-10-14 13:17:02 GMT 34.948334 -82.864098 23,925 224 454 -576
2018-10-14 13:16:53 GMT 34.960281 -82.850311 23,975 224 455 -64
2018-10-14 13:16:50 GMT 34.964222 -82.845726 23,975 224 454 64
2018-10-14 13:16:46 GMT 34.972927 -82.835709 23,975 224 452 192
2018-10-14 13:16:40 GMT 34.980377 -82.827164 23,950 224 449 192
2018-10-14 13:16:34 GMT 34.988800 -82.817406 23,950 224 447 192
2018-10-14 13:16:30 GMT 34.996250 -82.808762 23,950 224 443 128
2018-10-14 13:16:18 GMT 35.012032 -82.790451 23,975 224 436 -192
2018-10-14 13:16:08 GMT 35.027939 -82.772003 24,075 224 425 -512
2018-10-14 13:16:02 GMT 35.037495 -82.760925 24,150 224 424 -1152
2018-10-14 13:15:58 GMT 35.041580 -82.756195 24,225 224 423 -1408
2018-10-14 13:15:48 GMT 35.057095 -82.738266 24,575 224 424 -2368
2018-10-14 13:15:45 GMT 35.059250 -82.735794 24,625 224 424 -2880
2018-10-14 13:15:36 GMT 35.079533 -82.712402 25,350 224 428 -3456
2018-10-14 13:15:31 GMT 35.079533 -82.712402 25,350 224 428 -3456
2018-10-14 13:15:27 GMT 35.086842 -82.703995 25,650 224 427 -3456
2018-10-14 13:15:20 GMT 35.095642 -82.693924 26,000 224 428 -3456
2018-10-14 13:15:15 GMT 35.102783 -82.685799 26,300 224 430 -3648
2018-10-14 13:15:06 GMT 35.117706 -82.668755 27,000 224 428 -4352
2018-10-14 13:14:50 GMT 35.138718 -82.644485 27,875 225 429 -2944
2018-10-14 13:14:44 GMT 35.148972 -82.632263 28,225 226 433 -2944
2018-10-14 13:14:38 GMT 35.157898 -82.621338 28,600 226 410 -3904
2018-10-14 13:14:30 GMT 35.167095 -82.609978 29,750 226 435 -3008
2018-10-14 13:14:25 GMT 35.173985 -82.601334 29,200 226 429 -6400
2018-10-14 13:14:17 GMT 35.184647 -82.587952 30,700 226 402 -2112
2018-10-14 13:14:13 GMT 35.191452 -82.579468 30,350 226 425 -6656
2018-10-14 13:14:06 GMT 35.199875 -82.569153 32,600 226 402 -2112
2018-10-14 13:14:01 GMT 35.206852 -82.560654 31,550 225 416 -6208
2018-10-14 13:13:53 GMT 35.220631 -82.543831 32,350 226 410 -3904
2018-10-14 13:13:41 GMT 35.240509 -82.519249 33,275 226 405 -3328
2018-10-14 13:13:29 GMT 35.250046 -82.507378 33,550 226 396 -960
2018-10-14 13:13:20 GMT 35.261875 -82.492653 33,850 226 397 -960
2018-10-14 13:13:10 GMT 35.274960 -82.476349 34,200 226 397 -960
2018-10-14 13:13:05 GMT 35.281174 -82.468643 34,100 226 399 -1024
2018-10-14 13:12:59 GMT 35.288410 -82.459641 34,200 226 397 -960
2018-10-14 13:12:53 GMT 35.297256 -82.448708 34,300 226 398 -960
2018-10-14 13:12:26 GMT 35.331161 -82.406845 34,725 226 397 -960
2018-10-14 13:12:22 GMT 35.338131 -82.398224 34,800 226 396 -1024
2018-10-14 13:12:14 GMT 35.347115 -82.387001 34,925 226 396 -1024
2018-10-14 13:12:00 GMT 35.369972 -82.358543 35,050 226 396 -1024
2018-10-14 13:11:56 GMT 35.369972 -82.358543 35,225 226 395 -1024
2018-10-14 13:11:45 GMT 35.384636 -82.340134 35,425 226 394 -1024
2018-10-14 13:11:34 GMT 35.398506 -82.322662 35,600 226 393 -1024
2018-10-14 13:11:24 GMT 35.412598 -82.305283 35,850 225 394 -960
2018-10-14 13:10:56 GMT 35.449390 -82.261826 36,125 225 395 -896
2018-10-14 13:10:50 GMT 35.457256 -82.252480 36,350 225 395 -896
2018-10-14 13:10:43 GMT 35.464985 -82.243240 36,725 225 395 -896
2018-10-14 13:10:32 GMT 35.479416 -82.225883 36,625 225 409 -1024
2018-10-14 13:10:25 GMT 35.553543 -82.137733 36,650 225 409 -1024
2018-10-14 13:09:36 GMT 35.553543 -82.137733 37,525 225 409 -960
2018-10-14 13:09:19 GMT 35.576935 -82.109924 37,775 225 409 128
2018-10-14 13:09:00 GMT 35.603291 -82.078506 37,950 225 410 128
2018-10-14 13:08:01 GMT 35.706593 -81.955376 36,050 225 410 -64
2018-10-14 13:07:32 GMT 35.723537 -81.935097 38,025 225 409 0
2018-10-14 13:07:25 GMT 35.732895 -81.923904 38,025 225 410 0
2018-10-14 13:06:58 GMT 35.768692 -81.881279 38,000 225 410 64
2018-10-14 13:06:54 GMT 35.774551 -81.874290 38,000 225 410 0
2018-10-14 13:06:34 GMT 35.806072 -81.835876 38,000 224 410 -128
2018-10-14 13:05:54 GMT 35.856628 -81.774101 38,000 226 409 64
2018-10-14 13:05:17 GMT 35.904995 -81.714668 38,000 226 409 64
2018-10-14 13:05:07 GMT 35.917740 -81.698746 38,000 226 409 0
2018-10-14 13:05:02 GMT 35.925751 -81.688843 38,000 226 409 -64
2018-10-14 13:04:50 GMT 35.940308 -81.670876 38,000 225 408 64
2018-10-14 13:04:39 GMT 35.955414 -81.652283 37,975 226 408 -128
2018-10-14 13:04:29 GMT 35.969795 -81.634438 38,000 226 408 -64
2018-10-14 13:04:18 GMT 35.982559 -81.618690 38,000 226 407 64
2018-10-14 13:04:08 GMT 35.996796 -81.601128 38,000 226 406 64
2018-10-14 13:03:56 GMT 36.012299 -81.581902 37,975 226 406 0
2018-10-14 13:03:47 GMT 36.025429 -81.565659 38,000 226 406 -64
2018-10-14 13:03:32 GMT 36.043720 -81.543037 38,000 226 406 0
2018-10-14 13:03:24 GMT 36.055405 -81.528603 38,000 226 406 0
2018-10-14 13:03:14 GMT 36.068390 -81.512489 38,000 226 406 0
2018-10-14 13:02:54 GMT 36.094254 -81.480446 38,000 226 406 -64
2018-10-14 13:02:51 GMT 36.097961 -81.475868 38,000 226 405 -64
2018-10-14 13:02:45 GMT 36.106201 -81.465683 38,025 226 405 -64
2018-10-14 13:02:42 GMT 36.111099 -81.459557 38,025 226 405 -64
2018-10-14 13:02:30 GMT 36.125889 -81.441185 38,025 226 405 64
2018-10-14 13:02:21 GMT 36.138969 -81.424881 38,000 226 406 64
2018-10-14 13:02:10 GMT 36.152664 -81.407951 38,000 226 407 0
2018-10-14 13:02:04 GMT 36.161266 -81.397240 38,000 226 407 0
2018-10-14 13:01:54 GMT 36.174953 -81.380234 38,000 226 407 0
2018-10-14 13:01:22 GMT 36.218307 -81.326241 38,025 226 408 -64
2018-10-14 13:00:50 GMT 36.260796 -81.273293 38,025 226 408 -64
2018-10-14 13:00:41 GMT 36.270355 -81.261353 38,000 226 408 -64
2018-10-14 13:00:32 GMT 36.282536 -81.246117 38,025 226 408 -64
2018-10-14 13:00:26 GMT 36.291286 -81.235130 38,025 226 408 64
2018-10-14 13:00:23 GMT 36.294617 -81.230965 38,025 226 408 64
2018-10-14 13:00:12 GMT 36.309357 -81.212601 38,000 226 409 -64
2018-10-14 13:00:05 GMT 36.319592 -81.199776 38,000 226 409 -64
2018-10-14 13:00:02 GMT 36.323730 -81.194633 38,000 226 409 -64
2018-10-14 12:59:59 GMT 36.326248 -81.191483 38,025 226 408 0
2018-10-14 12:59:51 GMT 36.336769 -81.178329 38,025 226 408 64
2018-10-14 12:59:42 GMT 36.350456 -81.161209 38,000 226 409 64
2018-10-14 12:59:38 GMT 36.355110 -81.155365 38,000 226 409 0
2018-10-14 12:59:30 GMT 36.365387 -81.142555 38,000 226 409 0
2018-10-14 12:59:20 GMT 36.378292 -81.126434 38,000 226 408 -64
2018-10-14 12:59:08 GMT 36.394772 -81.105751 38,000 226 408 0
2018-10-14 12:58:59 GMT 36.406860 -81.090607 38,000 226 408 0
2018-10-14 12:58:49 GMT 36.420547 -81.073494 38,000 226 408 0
2018-10-14 12:58:41 GMT 36.430939 -81.060562 38,000 226 408 0
2018-10-14 12:58:36 GMT 36.438484 -81.051048 38,000 226 408 -64
2018-10-14 12:58:28 GMT 36.448792 -81.038071 38,000 226 407 0
2018-10-14 12:58:24 GMT 36.452496 -81.033401 38,000 226 407 0
2018-10-14 12:58:19 GMT 36.461105 -81.022514 38,000 226 407 0
2018-10-14 12:58:14 GMT 36.468109 -81.013702 38,000 226 407 0
2018-10-14 12:58:09 GMT 36.473911 -81.006409 38,000 226 407 0
2018-10-14 12:58:03 GMT 36.480659 -80.997932 38,000 226 406 64
2018-10-14 12:57:57 GMT 36.488708 -80.987778 38,000 226 406 64
2018-10-14 12:57:53 GMT 36.494614 -80.980286 38,000 226 406 64
2018-10-14 12:57:48 GMT 36.501747 -80.971344 38,000 226 407 64
2018-10-14 12:57:43 GMT 36.508255 -80.963173 37,975 226 407 0
2018-10-14 12:57:34 GMT 36.519485 -80.949074 38,000 226 406 -64
2018-10-14 12:57:31 GMT 36.522766 -80.944923 38,000 226 406 -64
2018-10-14 12:57:26 GMT 36.530136 -80.935593 38,000 226 405 -64
2018-10-14 12:57:22 GMT 36.536476 -80.927628 38,000 226 406 64
2018-10-14 12:57:13 GMT 36.547276 -80.914017 37,975 226 406 64
2018-10-14 12:57:10 GMT 36.550735 -80.909676 37,975 226 406 64
2018-10-14 12:57:03 GMT 36.561150 -80.896599 37,975 226 406 0
2018-10-14 12:56:59 GMT 36.566036 -80.890465 37,975 226 406 0
2018-10-14 12:56:50 GMT 36.577816 -80.875740 37,975 226 405 0
2018-10-14 12:56:43 GMT 36.588226 -80.862640 37,975 226 405 -64
2018-10-14 12:56:39 GMT 36.591225 -80.858788 38,000 226 405 -64
2018-10-14 12:56:31 GMT 36.603466 -80.843307 38,000 226 405 -64
2018-10-14 12:56:28 GMT 36.605942 -80.840149 38,000 226 405 -64
2018-10-14 12:56:20 GMT 36.617199 -80.825890 38,000 226 404 64
2018-10-14 12:56:17 GMT 36.619904 -80.822411 38,000 226 404 64
2018-10-14 12:56:07 GMT 36.632767 -80.806213 38,000 226 404 64
2018-10-14 12:56:01 GMT 36.642197 -80.794312 37,975 226 404 64
2018-10-14 12:55:56 GMT 36.648529 -80.786331 38,000 226 404 0
2018-10-14 12:55:49 GMT 36.656479 -80.776237 37,975 226 405 0
2018-10-14 12:55:44 GMT 36.663425 -80.767448 37,975 226 405 -64
2018-10-14 12:55:41 GMT 36.668545 -80.760963 38,000 226 405 -64
2018-10-14 12:55:34 GMT 36.676437 -80.750999 38,000 226 404 -64
2018-10-14 12:55:26 GMT 36.687958 -80.736420 38,000 226 404 64
2018-10-14 12:55:13 GMT 36.704578 -80.715324 37,975 226 404 64
2018-10-14 12:55:03 GMT 36.716766 -80.699905 37,975 226 404 -64
2018-10-14 12:54:56 GMT 36.727760 -80.685989 37,975 226 404 0
2018-10-14 12:54:53 GMT 36.730137 -80.683006 37,975 226 404 0
2018-10-14 12:54:48 GMT 36.738003 -80.673019 37,975 226 404 0
2018-10-14 12:54:43 GMT 36.742985 -80.666702 37,975 226 404 0
2018-10-14 12:54:40 GMT 36.749546 -80.658409 37,975 226 404 0
2018-10-14 12:54:34 GMT 36.759888 -80.645256 37,975 226 404 0
2018-10-14 12:54:23 GMT 36.770966 -80.631126 37,975 226 404 0
2018-10-14 12:54:12 GMT 36.784695 -80.613647 38,000 226 404 -64
2018-10-14 12:54:03 GMT 36.796333 -80.598801 38,000 226 404 -64
2018-10-14 12:54:00 GMT 36.801270 -80.592499 38,000 226 404 -64
2018-10-14 12:53:50 GMT 36.812393 -80.578346 38,000 226 403 0
2018-10-14 12:53:47 GMT 36.817062 -80.572357 38,000 226 404 -64
2018-10-14 12:53:42 GMT 36.824776 -80.562508 38,000 226 404 -64
2018-10-14 12:53:37 GMT 36.829742 -80.556168 38,050 226 404 -64
2018-10-14 12:53:30 GMT 36.840092 -80.542992 38,025 226 404 -64
2018-10-14 12:53:19 GMT 36.853825 -80.525543 38,025 226 404 0
2018-10-14 12:53:14 GMT 36.860641 -80.516869 38,050 226 404 0
2018-10-14 12:53:07 GMT 36.870209 -80.504707 38,050 226 405 0
2018-10-14 12:53:03 GMT 36.874027 -80.499870 38,050 226 405 0
2018-10-14 12:52:56 GMT 36.883198 -80.488228 38,025 226 405 0
2018-10-14 12:52:50 GMT 36.892368 -80.476585 38,050 226 405 0
2018-10-14 12:52:46 GMT 36.896439 -80.471405 38,025 226 405 0
2018-10-14 12:52:42 GMT 36.901932 -80.464394 38,050 226 405 0
2018-10-14 12:52:37 GMT 36.909546 -80.454674 38,050 226 405 -64
2018-10-14 12:52:32 GMT 36.916214 -80.446159 38,050 226 405 -64
2018-10-14 12:52:27 GMT 36.921230 -80.439804 38,050 226 405 -64
2018-10-14 12:52:22 GMT 36.928574 -80.430382 38,050 226 405 0
2018-10-14 12:52:17 GMT 36.935246 -80.421890 38,050 226 405 64
2018-10-14 12:52:12 GMT 36.942970 -80.411980 38,050 226 405 0
2018-10-14 12:52:04 GMT 36.953167 -80.398903 38,050 226 405 0
2018-10-14 12:51:56 GMT 36.962616 -80.386841 38,050 226 406 0
2018-10-14 12:51:53 GMT 36.966434 -80.382004 38,050 226 406 0
2018-10-14 12:51:40 GMT 36.983749 -80.360153 38,050 226 406 0
2018-10-14 12:51:33 GMT 36.993622 -80.347618 38,050 228 403 64
2018-10-14 12:51:24 GMT 37.003956 -80.334358 38,050 227 404 64
2018-10-14 12:51:21 GMT 37.007401 -80.329750 38,050 228 403 64
2018-10-14 12:51:14 GMT 37.017315 -80.316444 38,050 228 404 0
2018-10-14 12:51:11 GMT 37.021786 -80.310417 38,050 228 404 64
2018-10-14 12:51:08 GMT 37.024063 -80.307373 38,050 228 403 64
2018-10-14 12:51:01 GMT 37.033981 -80.294060 38,025 228 402 64
2018-10-14 12:50:52 GMT 37.044361 -80.280083 38,025 228 402 128
2018-10-14 12:50:49 GMT 37.049011 -80.273766 38,000 228 402 64
2018-10-14 12:50:42 GMT 37.057251 -80.262665 38,000 228 401 64
2018-10-14 12:50:39 GMT 37.062565 -80.255547 38,000 228 401 64
2018-10-14 12:50:31 GMT 37.071922 -80.242943 38,000 228 401 64
2018-10-14 12:50:28 GMT 37.074921 -80.238823 38,000 228 401 64
2018-10-14 12:50:20 GMT 37.086548 -80.223221 37,975 228 400 128
2018-10-14 12:50:17 GMT 37.089203 -80.219711 37,975 228 400 128
2018-10-14 12:50:08 GMT 37.102158 -80.202301 37,950 228 399 64
2018-10-14 12:49:57 GMT 37.115067 -80.184883 37,950 228 397 -64
2018-10-14 12:49:46 GMT 37.128204 -80.167236 37,975 228 396 0
2018-10-14 12:49:36 GMT 37.142029 -80.148651 37,975 228 394 0
2018-10-14 12:49:24 GMT 37.154739 -80.131409 37,950 228 392 0
2018-10-14 12:49:15 GMT 37.167480 -80.114059 37,975 228 391 0
2018-10-14 12:49:03 GMT 37.180618 -80.096237 37,975 228 390 -64
2018-10-14 12:48:52 GMT 37.194355 -80.077614 37,975 228 389 0
2018-10-14 12:48:43 GMT 37.206085 -80.061668 37,975 228 389 0
2018-10-14 12:48:26 GMT 37.227917 -80.032059 37,975 228 389 0
2018-10-14 12:48:21 GMT 37.234108 -80.023636 37,975 228 389 0
2018-10-14 12:48:10 GMT 37.246307 -80.007118 37,975 228 388 0
2018-10-14 12:47:59 GMT 37.258690 -79.990204 37,975 228 389 64
2018-10-14 12:47:49 GMT 37.271622 -79.972641 37,975 228 389 0
2018-10-14 12:47:39 GMT 37.283981 -79.955864 37,975 228 389 -64
2018-10-14 12:47:29 GMT 37.310081 -79.920280 38,000 228 389 -64
2018-10-14 12:47:17 GMT 37.310081 -79.920280 38,000 228 389 -64
2018-10-14 12:47:07 GMT 37.322754 -79.902977 38,000 228 389 64
2018-10-14 12:46:56 GMT 37.336029 -79.884865 38,000 228 390 0
2018-10-14 12:46:46 GMT 37.348892 -79.867393 38,000 228 390 -64
2018-10-14 12:46:36 GMT 37.361984 -79.849510 38,025 228 390 0
2018-10-14 12:46:24 GMT 37.375301 -79.831375 38,000 228 389 64
2018-10-14 12:46:19 GMT 37.382656 -79.821404 38,000 228 390 64
2018-10-14 12:46:10 GMT 37.391830 -79.808952 38,000 228 390 64
2018-10-14 12:46:04 GMT 37.401279 -79.796089 38,000 228 390 0
2018-10-14 12:45:52 GMT 37.414627 -79.777924 38,000 228 390 0
2018-10-14 12:45:28 GMT 37.444897 -79.736382 38,000 228 391 -128
2018-10-14 12:43:41 GMT 37.573425 -79.559830 38,025 228 391 0
2018-10-14 12:43:33 GMT 37.585625 -79.543045 38,025 228 391 0
2018-10-14 12:43:23 GMT 37.595913 -79.528954 38,025 228 390 192
2018-10-14 12:42:48 GMT 37.638882 -79.470024 38,025 228 391 0
2018-10-14 12:42:40 GMT 37.648285 -79.457069 38,025 228 391 0
2018-10-14 12:42:27 GMT 37.665230 -79.433418 38,000 229 390 64
2018-10-14 12:42:18 GMT 37.675507 -79.419060 38,025 229 390 64
2018-10-14 12:42:09 GMT 37.687363 -79.402458 38,000 228 391 0
2018-10-14 12:42:02 GMT 37.695877 -79.390656 38,000 228 388 -64
2018-10-14 12:41:56 GMT 37.701958 -79.382195 38,000 228 391 0
2018-10-14 12:41:49 GMT 37.711624 -79.368919 38,000 228 391 64
2018-10-14 12:41:36 GMT 37.726257 -79.348694 38,000 228 388 0
2018-10-14 12:41:33 GMT 37.729935 -79.343674 38,000 228 390 0
2018-10-14 12:41:26 GMT 37.739990 -79.329651 38,000 228 390 0
2018-10-14 12:41:21 GMT 37.745819 -79.321579 38,000 228 390 0
2018-10-14 12:41:13 GMT 37.754059 -79.310127 38,000 228 387 0
2018-10-14 12:41:10 GMT 37.758774 -79.303581 38,000 228 390 0
2018-10-14 12:41:06 GMT 37.763641 -79.296867 38,000 228 390 0
2018-10-14 12:40:54 GMT 37.793106 -79.256073 38,000 228 389 -64
2018-10-14 12:40:42 GMT 37.793106 -79.256073 38,025 228 388 0
2018-10-14 12:40:34 GMT 37.802261 -79.243393 38,000 228 388 0
2018-10-14 12:40:24 GMT 37.815125 -79.225395 38,000 228 388 0
2018-10-14 12:40:18 GMT 37.820801 -79.217506 38,000 228 388 0
2018-10-14 12:40:11 GMT 37.832584 -79.201035 38,025 228 387 64
2018-10-14 12:39:59 GMT 37.844456 -79.184441 38,025 228 388 64
2018-10-14 12:39:51 GMT 37.853989 -79.171165 38,000 228 388 64
2018-10-14 12:39:44 GMT 37.861679 -79.160408 38,000 228 388 64
2018-10-14 12:39:40 GMT 37.866577 -79.153511 38,025 228 388 -128
2018-10-14 12:39:31 GMT 37.878578 -79.136734 38,025 228 387 64
2018-10-14 12:39:18 GMT 37.893539 -79.116058 38,025 228 387 64
2018-10-14 12:39:07 GMT 37.905991 -79.099052 38,000 228 388 64
2018-10-14 12:39:00 GMT 37.915726 -79.085739 38,000 228 387 0
2018-10-14 12:38:57 GMT 37.918304 -79.082275 38,000 228 388 0
2018-10-14 12:38:48 GMT 37.931229 -79.064606 38,000 228 387 0
2018-10-14 12:38:37 GMT 37.944260 -79.046806 38,000 228 387 64
2018-10-14 12:38:25 GMT 37.957344 -79.028778 37,975 228 387 128
2018-10-14 12:38:17 GMT 37.967239 -79.015305 37,975 228 387 0
2018-10-14 12:38:11 GMT 37.974564 -79.005371 37,975 228 387 0
2018-10-14 12:38:04 GMT 37.984543 -78.991814 37,975 228 387 0
2018-10-14 12:37:56 GMT 37.992912 -78.980354 37,950 228 385 64
2018-10-14 12:37:53 GMT 37.996449 -78.975578 37,950 228 385 64
2018-10-14 12:37:45 GMT 38.005852 -78.962624 37,975 228 386 -64
2018-10-14 12:37:41 GMT 38.010956 -78.955643 37,950 228 386 -128
2018-10-14 12:37:33 GMT 38.022217 -78.940216 37,975 228 384 -64
2018-10-14 12:37:20 GMT 38.036110 -78.921181 37,975 228 384 -64
2018-10-14 12:37:04 GMT 38.055801 -78.894257 37,975 228 384 0
2018-10-14 12:36:50 GMT 38.072479 -78.871437 38,000 228 384 -64
2018-10-14 12:36:41 GMT 38.083408 -78.856339 38,000 228 384 0
2018-10-14 12:36:33 GMT 38.094955 -78.840462 38,000 228 386 -128
2018-10-14 12:36:26 GMT 38.103191 -78.829170 37,975 228 385 -64
2018-10-14 12:36:21 GMT 38.107315 -78.823570 37,975 228 386 -128
2018-10-14 12:36:16 GMT 38.114365 -78.813934 38,000 228 386 -128
2018-10-14 12:36:11 GMT 38.120316 -78.805748 38,025 228 385 0
2018-10-14 12:36:02 GMT 38.130566 -78.791618 38,000 228 386 128
2018-10-14 12:35:59 GMT 38.134521 -78.786125 38,000 228 387 128
2018-10-14 12:35:54 GMT 38.140808 -78.777405 37,975 228 388 -192
2018-10-14 12:35:51 GMT 38.145741 -78.770477 37,975 228 388 -256
2018-10-14 12:35:44 GMT 38.152039 -78.761749 38,025 228 392 64
2018-10-14 12:35:41 GMT 38.156525 -78.755554 38,025 228 387 0
2018-10-14 12:35:30 GMT 38.170834 -78.735786 38,000 228 387 128
2018-10-14 12:35:12 GMT 38.192432 -78.705933 38,000 228 389 -64
2018-10-14 12:35:07 GMT 38.197788 -78.698532 38,025 228 390 -192
2018-10-14 12:35:02 GMT 38.204132 -78.689751 38,025 228 390 -64
2018-10-14 12:34:55 GMT 38.211456 -78.679642 38,000 228 390 64
2018-10-14 12:34:52 GMT 38.217293 -78.671486 38,025 228 390 0
2018-10-14 12:34:47 GMT 38.222168 -78.664742 38,000 228 391 -64
2018-10-14 12:34:40 GMT 38.235947 -78.645569 38,025 228 392 64
2018-10-14 12:34:36 GMT 38.235947 -78.645569 38,025 228 392 -128
2018-10-14 12:34:31 GMT 38.242569 -78.636375 38,025 228 392 64
2018-10-14 12:34:25 GMT 38.248810 -78.627716 38,025 228 392 64
2018-10-14 12:34:17 GMT 38.259888 -78.612434 38,025 228 392 0
2018-10-14 12:34:08 GMT 38.270920 -78.597122 38,000 228 394 128
2018-10-14 12:34:04 GMT 38.274506 -78.592194 38,000 228 394 0
2018-10-14 12:33:56 GMT 38.288040 -78.573341 38,000 228 394 -64
2018-10-14 12:33:44 GMT 38.300079 -78.556511 38,025 228 395 64
2018-10-14 12:33:39 GMT 38.305740 -78.548607 38,025 228 395 0
2018-10-14 12:33:35 GMT 38.311188 -78.541084 38,025 228 394 128
2018-10-14 12:33:27 GMT 38.320637 -78.527885 38,000 228 395 128
2018-10-14 12:33:24 GMT 38.324268 -78.522873 38,000 228 395 128
2018-10-14 12:33:21 GMT 38.327957 -78.517769 37,975 228 396 128
2018-10-14 12:33:17 GMT 38.331905 -78.512245 37,975 228 397 64
2018-10-14 12:33:13 GMT 38.336884 -78.505379 37,975 228 397 64
2018-10-14 12:33:08 GMT 38.349884 -78.487320 37,975 228 397 128
2018-10-14 12:33:03 GMT 38.349884 -78.487320 37,975 228 397 64
2018-10-14 12:32:57 GMT 38.357693 -78.476479 37,975 228 397 64
2018-10-14 12:32:52 GMT 38.363159 -78.468910 37,950 228 397 -64
2018-10-14 12:32:47 GMT 38.371471 -78.457367 37,975 228 397 0
2018-10-14 12:32:41 GMT 38.377167 -78.449455 37,975 228 397 0
2018-10-14 12:32:38 GMT 38.381241 -78.443726 37,975 228 397 0
2018-10-14 12:32:33 GMT 38.386322 -78.436714 37,975 228 397 128
2018-10-14 12:32:28 GMT 38.393631 -78.426498 37,950 228 397 0
2018-10-14 12:32:25 GMT 38.397125 -78.421661 37,975 228 397 -64
2018-10-14 12:32:22 GMT 38.402069 -78.414803 37,975 228 397 0
2018-10-14 12:32:18 GMT 38.405914 -78.409424 37,975 228 397 0
2018-10-14 12:32:14 GMT 38.410858 -78.402496 37,975 228 397 -64
2018-10-14 12:32:10 GMT 38.415070 -78.396645 37,975 228 397 -64
2018-10-14 12:32:07 GMT 38.419048 -78.391113 37,975 228 398 -128
2018-10-14 12:32:04 GMT 38.422775 -78.385925 37,975 228 397 -128
2018-10-14 12:32:01 GMT 38.427887 -78.378914 38,000 228 398 -64
2018-10-14 12:31:57 GMT 38.431015 -78.374573 38,000 228 398 -64
2018-10-14 12:31:53 GMT 38.436459 -78.367004 38,000 228 397 0
2018-10-14 12:31:50 GMT 38.440063 -78.362015 37,975 228 397 64
2018-10-14 12:31:47 GMT 38.444412 -78.355988 37,975 228 397 64
2018-10-14 12:31:43 GMT 38.449402 -78.349060 37,975 228 397 0
2018-10-14 12:31:40 GMT 38.453732 -78.342957 37,975 228 397 -64
2018-10-14 12:31:36 GMT 38.458153 -78.336731 37,975 228 398 -64
2018-10-14 12:31:31 GMT 38.467117 -78.324219 37,975 228 399 -64
2018-10-14 12:31:25 GMT 38.471191 -78.318489 38,000 228 399 -128
2018-10-14 12:31:22 GMT 38.475311 -78.312759 38,000 228 399 -192
2018-10-14 12:31:18 GMT 38.480312 -78.305786 38,025 228 399 -128
2018-10-14 12:31:15 GMT 38.488506 -78.294312 38,025 228 399 -64
2018-10-14 12:31:11 GMT 38.488506 -78.294312 38,025 228 400 0
2018-10-14 12:31:08 GMT 38.492981 -78.288040 38,025 228 400 -64
2018-10-14 12:31:00 GMT 38.503124 -78.273987 38,025 228 400 0
2018-10-14 12:30:50 GMT 38.515179 -78.257019 38,025 228 400 0
2018-10-14 12:30:47 GMT 38.518936 -78.251793 38,025 228 404 -64
2018-10-14 12:30:38 GMT 38.530029 -78.236206 38,025 228 402 -64
2018-10-14 12:30:34 GMT 38.534821 -78.229523 38,025 228 402 -64
2018-10-14 12:30:29 GMT 38.543438 -78.217407 38,025 228 404 -64
2018-10-14 12:30:25 GMT 38.545856 -78.214050 38,025 228 404 -64
2018-10-14 12:30:18 GMT 38.554779 -78.201523 38,025 228 404 -64
2018-10-14 12:30:15 GMT 38.558521 -78.196167 38,025 228 404 -64
2018-10-14 12:30:07 GMT 38.570484 -78.179382 38,050 228 405 -128
2018-10-14 12:30:04 GMT 38.572495 -78.176559 38,050 228 405 -64
2018-10-14 12:30:00 GMT 38.577282 -78.169800 38,050 228 406 0
2018-10-14 12:29:56 GMT 38.582336 -78.162712 38,050 228 406 0
2018-10-14 12:29:52 GMT 38.588173 -78.154541 38,050 228 406 0
2018-10-14 12:29:45 GMT 38.596115 -78.143364 38,050 228 407 0
2018-10-14 12:29:42 GMT 38.599812 -78.138245 38,050 228 407 0
2018-10-14 12:29:37 GMT 38.607513 -78.127419 38,050 228 408 64
2018-10-14 12:29:34 GMT 38.612457 -78.120499 38,050 228 408 64
2018-10-14 12:29:31 GMT 38.613739 -78.118706 38,050 228 408 64
2018-10-14 12:29:25 GMT 38.622391 -78.106583 38,050 228 409 0
2018-10-14 12:29:21 GMT 38.626953 -78.100159 38,050 228 409 64
2018-10-14 12:29:17 GMT 38.633190 -78.091370 38,025 228 409 64
2018-10-14 12:29:13 GMT 38.638031 -78.084595 38,025 228 409 128
2018-10-14 12:29:10 GMT 38.640591 -78.081055 38,025 228 409 128
2018-10-14 12:29:04 GMT 38.648972 -78.069214 38,025 228 409 128
2018-10-14 12:29:01 GMT 38.652145 -78.064789 38,000 228 409 64
2018-10-14 12:28:56 GMT 38.659164 -78.054932 38,000 228 409 0
2018-10-14 12:28:53 GMT 38.668339 -78.041992 38,000 228 409 0
2018-10-14 12:28:49 GMT 38.668339 -78.041992 38,025 228 407 128
2018-10-14 12:28:44 GMT 38.675461 -78.031982 38,000 228 409 0
2018-10-14 12:28:40 GMT 38.678997 -78.026978 38,000 228 409 0
2018-10-14 12:28:34 GMT 38.687378 -78.015137 38,000 228 409 64
2018-10-14 12:28:30 GMT 38.691845 -78.008850 38,000 228 409 64
2018-10-14 12:28:23 GMT 38.702225 -77.994156 38,000 228 409 64
2018-10-14 12:28:20 GMT 38.705154 -77.990036 38,000 228 409 0
2018-10-14 12:28:16 GMT 38.710556 -77.982269 38,000 228 409 -64
2018-10-14 12:28:13 GMT 38.718933 -77.970451 38,000 228 409 -128
2018-10-14 12:28:10 GMT 38.718933 -77.970451 38,000 229 408 -64
2018-10-14 12:28:05 GMT 38.724106 -77.963104 38,025 228 407 -64
2018-10-14 12:28:02 GMT 38.728546 -77.956833 38,025 228 407 0
2018-10-14 12:27:58 GMT 38.731693 -77.952393 38,025 228 407 64
2018-10-14 12:27:53 GMT 38.740173 -77.940414 38,000 228 407 128
2018-10-14 12:27:48 GMT 38.745575 -77.932716 37,975 228 407 0
2018-10-14 12:27:44 GMT 38.750015 -77.926445 37,975 229 407 0
2018-10-14 12:27:41 GMT 38.755062 -77.919312 38,000 228 408 -64
2018-10-14 12:27:38 GMT 38.759491 -77.913010 38,000 229 407 0
2018-10-14 12:27:33 GMT 38.765717 -77.904228 38,000 228 407 64
2018-10-14 12:27:30 GMT 38.768143 -77.900826 38,000 228 407 64
2018-10-14 12:27:27 GMT 38.771915 -77.895447 38,000 228 407 64
2018-10-14 12:27:23 GMT 38.776337 -77.889221 38,000 228 407 0
2018-10-14 12:27:20 GMT 38.781921 -77.881363 38,000 228 407 0
2018-10-14 12:27:16 GMT 38.785309 -77.876526 38,000 228 407 0
2018-10-14 12:27:12 GMT 38.790985 -77.868469 38,000 228 407 0
2018-10-14 12:27:09 GMT 38.794773 -77.863098 38,000 229 407 0
2018-10-14 12:27:06 GMT 38.798538 -77.857719 37,900 229 405 0
2018-10-14 12:27:02 GMT 38.803619 -77.850586 38,000 228 406 0
2018-10-14 12:26:59 GMT 38.808380 -77.843803 38,000 228 406 0
2018-10-14 12:26:56 GMT 38.816792 -77.831848 37,900 229 405 0
2018-10-14 12:26:51 GMT 38.816792 -77.831848 38,000 228 405 0
2018-10-14 12:26:48 GMT 38.821335 -77.825417 38,000 228 405 0
2018-10-14 12:26:44 GMT 38.825359 -77.819763 38,000 228 405 -64
2018-10-14 12:26:40 GMT 38.832619 -77.809387 38,000 228 405 -64
2018-10-14 12:26:37 GMT 38.835022 -77.806015 38,000 228 405 -64
2018-10-14 12:26:34 GMT 38.839188 -77.800102 37,900 229 405 0
2018-10-14 12:26:30 GMT 38.843811 -77.793533 38,025 229 405 64
2018-10-14 12:26:27 GMT 38.851089 -77.783203 38,000 229 405 0
2018-10-14 12:26:24 GMT 38.851089 -77.783203 38,000 229 405 64
2018-10-14 12:26:19 GMT 38.858505 -77.772697 38,000 229 405 64
2018-10-14 12:26:16 GMT 38.861618 -77.768219 38,000 229 405 0
2018-10-14 12:26:13 GMT 38.864742 -77.763733 38,000 229 405 0
2018-10-14 12:26:09 GMT 38.869904 -77.756454 38,000 229 400 384
2018-10-14 12:26:05 GMT 38.874283 -77.750183 38,000 229 405 64
2018-10-14 12:26:02 GMT 38.879929 -77.742188 38,000 229 405 192
2018-10-14 12:25:59 GMT 38.886841 -77.732391 37,975 229 403 256
2018-10-14 12:25:55 GMT 38.890575 -77.727051 37,950 229 403 320
2018-10-14 12:25:52 GMT 38.890575 -77.727051 37,950 229 403 384
2018-10-14 12:25:49 GMT 38.895557 -77.719971 37,925 228 402 320
2018-10-14 12:25:46 GMT 38.898071 -77.716431 37,925 228 402 320
2018-10-14 12:25:42 GMT 38.904079 -77.707947 37,900 229 402 320
2018-10-14 12:25:38 GMT 38.910408 -77.698914 37,875 229 402 384
2018-10-14 12:25:35 GMT 38.912785 -77.695557 37,850 229 400 320
2018-10-14 12:25:32 GMT 38.916973 -77.689575 37,825 229 400 384
2018-10-14 12:25:28 GMT 38.922188 -77.682129 37,800 229 400 384
2018-10-14 12:25:24 GMT 38.927078 -77.675072 37,775 229 399 448
2018-10-14 12:25:20 GMT 38.930286 -77.670471 37,750 229 399 512
2018-10-14 12:25:16 GMT 38.935959 -77.662354 37,700 229 398 576
2018-10-14 12:25:12 GMT 38.940853 -77.655334 37,700 229 398 576
2018-10-14 12:25:08 GMT 38.946396 -77.647400 37,625 229 398 512
2018-10-14 12:25:05 GMT 38.949326 -77.643188 37,625 229 398 512
2018-10-14 12:25:02 GMT 38.956467 -77.633034 37,575 229 397 384
2018-10-14 12:24:59 GMT 38.961617 -77.625671 37,575 229 397 384
2018-10-14 12:24:56 GMT 38.961617 -77.625671 37,550 229 396 448
2018-10-14 12:24:51 GMT 38.966034 -77.619362 37,525 229 395 448
2018-10-14 12:24:47 GMT 38.972137 -77.610657 37,500 229 395 640
2018-10-14 12:24:44 GMT 38.974697 -77.606934 37,450 229 395 832
2018-10-14 12:24:41 GMT 38.978233 -77.601929 37,400 229 395 960
2018-10-14 12:24:38 GMT 38.983383 -77.594582 37,300 229 396 1152
2018-10-14 12:24:35 GMT 38.987183 -77.589149 37,275 229 396 1216
2018-10-14 12:24:30 GMT 38.993179 -77.580551 37,125 229 397 1344
2018-10-14 12:24:27 GMT 38.996113 -77.576355 36,825 229 398 1280
2018-10-14 12:24:24 GMT 38.999817 -77.571060 37,000 229 398 1280
2018-10-14 12:24:20 GMT 39.003746 -77.565430 36,975 229 399 1152
2018-10-14 12:24:16 GMT 39.010895 -77.555237 36,900 229 400 1024
2018-10-14 12:24:13 GMT 39.013229 -77.551895 36,850 229 400 960
2018-10-14 12:24:10 GMT 39.016968 -77.546570 36,725 229 395 320
2018-10-14 12:24:06 GMT 39.022041 -77.539307 36,750 229 400 704
2018-10-14 12:24:03 GMT 39.029343 -77.528908 36,675 229 399 576
2018-10-14 12:24:00 GMT 39.034378 -77.521683 36,675 229 399 576
2018-10-14 12:23:57 GMT 39.034378 -77.521683 36,650 229 398 512
2018-10-14 12:23:54 GMT 39.036846 -77.518188 36,625 229 398 448
2018-10-14 12:23:51 GMT 39.039543 -77.514282 36,600 229 398 384
2018-10-14 12:23:47 GMT 39.046902 -77.503723 36,575 229 397 256
2018-10-14 12:23:44 GMT 39.050346 -77.498779 36,550 229 395 256
2018-10-14 12:23:39 GMT 39.055187 -77.491760 36,575 229 395 256
2018-10-14 12:23:34 GMT 39.063614 -77.479736 36,525 229 393 512
2018-10-14 12:23:31 GMT 39.065430 -77.477112 36,500 229 393 512
2018-10-14 12:23:28 GMT 39.069534 -77.471230 36,475 229 393 640
2018-10-14 12:23:25 GMT 39.072086 -77.467529 36,450 229 393 704
2018-10-14 12:23:22 GMT 39.075989 -77.461975 36,425 229 393 768
2018-10-14 12:23:18 GMT 39.080093 -77.456116 36,375 229 391 576
2018-10-14 12:23:15 GMT 39.084560 -77.449646 36,325 229 391 512
2018-10-14 12:23:12 GMT 39.087585 -77.445312 36,300 229 391 384
2018-10-14 12:23:06 GMT 39.094429 -77.435486 36,275 229 390 256
2018-10-14 12:23:01 GMT 39.100571 -77.426682 36,275 229 388 256
2018-10-14 12:22:57 GMT 39.105927 -77.418922 36,225 229 383 832
2018-10-14 12:22:51 GMT 39.112583 -77.409302 36,225 229 385 320
2018-10-14 12:22:48 GMT 39.117920 -77.401604 36,200 229 384 384
2018-10-14 12:22:44 GMT 39.124466 -77.392296 36,175 229 383 832
2018-10-14 12:22:41 GMT 39.124466 -77.392296 36,100 229 381 768
2018-10-14 12:22:37 GMT 39.129902 -77.384460 36,075 229 383 832
2018-10-14 12:22:33 GMT 39.134628 -77.377724 36,025 228 382 960
2018-10-14 12:22:30 GMT 39.138142 -77.372620 36,025 228 382 960
2018-10-14 12:22:25 GMT 39.143356 -77.365173 35,400 229 381 832
2018-10-14 12:22:20 GMT 39.149414 -77.356590 35,850 229 382 832
2018-10-14 12:22:15 GMT 39.154907 -77.348648 35,800 229 381 832
2018-10-14 12:22:10 GMT 39.161728 -77.338791 35,725 229 381 768
2018-10-14 12:22:03 GMT 39.168869 -77.328468 35,625 229 381 768
2018-10-14 12:21:59 GMT 39.173569 -77.321777 35,525 228 380 832
2018-10-14 12:21:53 GMT 39.182693 -77.309357 35,325 224 384 896
2018-10-14 12:21:49 GMT 39.186184 -77.304871 35,450 225 383 832
2018-10-14 12:21:45 GMT 39.191677 -77.298035 35,350 223 385 896
2018-10-14 12:21:42 GMT 39.201454 -77.286621 35,275 221 388 1088
2018-10-14 12:21:38 GMT 39.201454 -77.286621 35,275 222 386 1024
2018-10-14 12:21:35 GMT 39.206203 -77.281372 35,125 220 389 1472
2018-10-14 12:21:32 GMT 39.215973 -77.271149 34,900 219 389 1536
2018-10-14 12:21:28 GMT 39.215973 -77.271149 35,050 219 390 1664
2018-10-14 12:21:24 GMT 39.220772 -77.266174 34,650 219 391 1920
2018-10-14 12:21:17 GMT 39.229385 -77.257233 34,500 220 393 1664
2018-10-14 12:21:14 GMT 39.235748 -77.250603 34,600 220 394 1408
2018-10-14 12:21:08 GMT 39.243393 -77.242546 34,500 220 395 960
2018-10-14 12:21:05 GMT 39.247787 -77.237946 34,450 220 395 960
2018-10-14 12:21:02 GMT 39.250751 -77.234863 34,425 220 394 960
2018-10-14 12:20:58 GMT 39.258106 -77.227112 34,325 220 394 1088
2018-10-14 12:20:55 GMT 39.260342 -77.224731 34,275 220 394 1088
2018-10-14 12:20:52 GMT 39.265182 -77.219673 34,225 220 394 1024
2018-10-14 12:20:48 GMT 39.272507 -77.211975 34,150 220 394 1088
2018-10-14 12:20:45 GMT 39.275799 -77.208557 34,075 220 394 1216
2018-10-14 12:20:42 GMT 39.280014 -77.204155 34,025 220 394 1216
2018-10-14 12:20:38 GMT 39.285278 -77.198662 33,975 220 394 1216
2018-10-14 12:20:35 GMT 39.291206 -77.192444 33,875 220 394 1280
2018-10-14 12:20:31 GMT 39.294617 -77.188866 33,825 220 395 1216
2018-10-14 12:20:27 GMT 39.302845 -77.180298 33,475 220 395 1152
2018-10-14 12:20:24 GMT 39.306244 -77.176689 33,600 220 395 1216
2018-10-14 12:20:20 GMT 39.312481 -77.170166 33,575 220 395 1152
2018-10-14 12:20:16 GMT 39.316902 -77.165588 33,500 220 395 1152
2018-10-14 12:20:11 GMT 39.323837 -77.158264 33,425 220 395 1088
2018-10-14 12:20:06 GMT 39.332081 -77.149658 33,325 220 395 1024
2018-10-14 12:20:01 GMT 39.339294 -77.142090 33,225 220 395 960
2018-10-14 12:19:56 GMT 39.345394 -77.135681 33,175 220 394 832
2018-10-14 12:19:53 GMT 39.349594 -77.131248 33,125 220 392 704
2018-10-14 12:19:50 GMT 39.353714 -77.126945 33,100 220 392 704
2018-10-14 12:19:46 GMT 39.359871 -77.120422 33,050 220 392 704
2018-10-14 12:19:43 GMT 39.363407 -77.116699 33,000 220 391 704
2018-10-14 12:19:40 GMT 39.368408 -77.111366 32,975 220 390 640
2018-10-14 12:19:35 GMT 39.376190 -77.103065 32,925 220 389 640
2018-10-14 12:19:32 GMT 39.377747 -77.101440 32,900 220 389 640
2018-10-14 12:19:29 GMT 39.383011 -77.095840 32,875 220 389 768
2018-10-14 12:19:23 GMT 39.391853 -77.086426 32,725 220 387 1408
2018-10-14 12:19:20 GMT 39.395462 -77.082588 32,600 220 388 2048
2018-10-14 12:19:17 GMT 39.400463 -77.077271 32,525 220 389 2368
2018-10-14 12:19:13 GMT 39.410110 -77.067062 32,250 220 392 2624
2018-10-14 12:19:07 GMT 39.420319 -77.056374 32,075 220 395 2624
2018-10-14 12:19:03 GMT 39.420319 -77.056374 31,950 219 397 2624
2018-10-14 12:19:00 GMT 39.422470 -77.054169 31,875 220 398 2560
2018-10-14 12:18:56 GMT 39.430618 -77.045570 31,650 221 401 2176
2018-10-14 12:18:52 GMT 39.436157 -77.039474 31,500 222 401 2048
2018-10-14 12:18:48 GMT 39.440186 -77.034943 31,350 223 401 2048
2018-10-14 12:18:45 GMT 39.444489 -77.029922 31,300 224 402 1920
2018-10-14 12:18:42 GMT 39.449753 -77.023537 31,200 224 402 1792
2018-10-14 12:18:39 GMT 39.452602 -77.020020 31,175 225 403 1664
2018-10-14 12:18:35 GMT 39.458794 -77.012085 31,000 226 402 1536
2018-10-14 12:18:30 GMT 39.465363 -77.003296 30,875 231 399 1024
2018-10-14 12:18:27 GMT 39.467918 -76.999756 30,725 231 400 1152
2018-10-14 12:18:24 GMT 39.472294 -76.993530 30,750 229 401 1280
2018-10-14 12:18:21 GMT 39.476204 -76.987793 30,700 230 401 1280
2018-10-14 12:18:18 GMT 39.478821 -76.983772 30,650 230 400 1216
2018-10-14 12:18:14 GMT 39.484722 -76.974548 30,550 232 399 960
2018-10-14 12:18:10 GMT 39.493698 -76.959709 30,450 233 399 896
2018-10-14 12:18:06 GMT 39.498505 -76.951294 30,375 234 397 960
2018-10-14 12:18:01 GMT 39.498505 -76.951294 30,375 235 396 1088
2018-10-14 12:17:58 GMT 39.501709 -76.945557 30,325 235 395 1152
2018-10-14 12:17:55 GMT 39.505371 -76.938751 30,075 237 394 1280
2018-10-14 12:17:51 GMT 39.510094 -76.929504 30,075 238 393 1344
2018-10-14 12:17:48 GMT 39.512096 -76.925598 29,600 245 390 1792
2018-10-14 12:17:45 GMT 39.515579 -76.918388 30,000 239 393 1280
2018-10-14 12:17:42 GMT 39.517731 -76.913788 29,950 240 393 1216
2018-10-14 12:17:38 GMT 39.520893 -76.906921 29,825 241 391 1216
2018-10-14 12:17:34 GMT 39.525513 -76.896294 29,775 242 392 1216
2018-10-14 12:17:29 GMT 39.529785 -76.885986 29,675 243 390 1280
2018-10-14 12:17:25 GMT 39.532673 -76.878662 29,575 244 390 1280
2018-10-14 12:17:22 GMT 39.535675 -76.870743 29,525 245 390 1280
2018-10-14 12:17:13 GMT 39.542587 -76.852478 29,325 245 390 1280
2018-10-14 12:17:09 GMT 39.545425 -76.844948 29,250 244 390 1152
2018-10-14 12:17:03 GMT 39.550453 -76.831787 29,150 244 389 832
2018-10-14 12:16:59 GMT 39.553619 -76.823395 29,100 244 388 704
2018-10-14 12:16:52 GMT 39.558975 -76.809242 29,025 245 386 1024
2018-10-14 12:16:46 GMT 39.563599 -76.797005 28,950 245 385 1408
2018-10-14 12:16:42 GMT 39.567589 -76.786438 28,750 244 387 1792
2018-10-14 12:16:38 GMT 39.571976 -76.774788 28,625 244 387 1984
2018-10-14 12:16:31 GMT 39.576096 -76.763924 28,375 244 388 2048
2018-10-14 12:16:28 GMT 39.578156 -76.758492 28,275 245 390 1792
2018-10-14 12:16:25 GMT 39.579666 -76.754486 28,200 245 390 1856
2018-10-14 12:16:21 GMT 39.585045 -76.740234 28,050 245 391 1664
2018-10-14 12:16:15 GMT 39.587723 -76.733055 27,975 244 391 1536
2018-10-14 12:16:12 GMT 39.590443 -76.725952 27,875 245 391 1280
2018-10-14 12:16:08 GMT 39.596191 -76.710602 27,775 245 390 1216
2018-10-14 12:16:05 GMT 39.596191 -76.710602 27,450 244 388 1088
2018-10-14 12:16:02 GMT 39.598915 -76.703430 27,650 245 390 1152
2018-10-14 12:15:59 GMT 39.600731 -76.698608 27,600 244 389 1088
2018-10-14 12:15:56 GMT 39.603012 -76.692566 27,575 244 389 1024
2018-10-14 12:15:53 GMT 39.605247 -76.686707 27,550 244 388 1024
2018-10-14 12:15:50 GMT 39.607132 -76.681702 27,475 244 387 1216
2018-10-14 12:15:47 GMT 39.609947 -76.674194 27,350 245 385 1408
2018-10-14 12:15:44 GMT 39.613266 -76.665466 27,300 245 386 1216
2018-10-14 12:15:39 GMT 39.616371 -76.657166 27,200 245 385 1344
2018-10-14 12:15:33 GMT 39.620888 -76.645081 27,050 244 385 1472
2018-10-14 12:15:30 GMT 39.623497 -76.638245 27,000 244 385 1408
2018-10-14 12:15:27 GMT 39.626129 -76.631248 26,925 245 384 1344
2018-10-14 12:15:22 GMT 39.629734 -76.621704 26,850 245 384 1344
2018-10-14 12:15:17 GMT 39.633366 -76.612000 26,725 245 383 1408
2018-10-14 12:15:14 GMT 39.636154 -76.604561 26,700 245 383 1408
2018-10-14 12:15:11 GMT 39.638020 -76.599609 26,575 245 383 1600
2018-10-14 12:15:06 GMT 39.642303 -76.588074 26,400 245 383 1856
2018-10-14 12:15:02 GMT 39.645470 -76.579590 26,300 245 383 2048
2018-10-14 12:14:58 GMT 39.647736 -76.573631 26,150 245 384 2304
2018-10-14 12:14:55 GMT 39.650436 -76.566345 26,000 245 385 2368
2018-10-14 12:14:52 GMT 39.652863 -76.559959 25,875 245 385 2304
2018-10-14 12:14:45 GMT 39.658409 -76.545166 25,675 245 386 1792
2018-10-14 12:14:41 GMT 39.661972 -76.535599 25,525 245 386 1664
2018-10-14 12:14:38 GMT 39.664078 -76.529984 25,450 245 386 1664
2018-10-14 12:14:34 GMT 39.666733 -76.522881 25,375 245 386 1664
2018-10-14 12:14:30 GMT 39.669754 -76.514763 25,225 245 385 1664
2018-10-14 12:14:26 GMT 39.672775 -76.506638 25,150 245 385 1664
2018-10-14 12:14:23 GMT 39.679638 -76.488403 24,950 245 384 1536
2018-10-14 12:14:18 GMT 39.679638 -76.488403 24,950 245 384 1536
2018-10-14 12:14:15 GMT 39.682571 -76.480545 24,825 245 384 1600
2018-10-14 12:14:12 GMT 39.684128 -76.476364 24,775 245 383 1536
2018-10-14 12:14:09 GMT 39.687012 -76.468727 24,425 245 381 1472
2018-10-14 12:14:04 GMT 39.690491 -76.459473 24,550 245 381 1472
2018-10-14 12:14:00 GMT 39.695930 -76.444824 24,425 245 381 1472
2018-10-14 12:13:56 GMT 39.695930 -76.444824 24,275 245 380 1472
2018-10-14 12:13:53 GMT 39.698822 -76.437019 24,275 245 380 1472
2018-10-14 12:13:50 GMT 39.700447 -76.432678 24,225 245 379 1408
2018-10-14 12:13:47 GMT 39.704178 -76.422691 24,125 245 378 1216
2018-10-14 12:13:43 GMT 39.706310 -76.416931 24,100 245 378 1216
2018-10-14 12:13:40 GMT 39.709167 -76.409195 23,925 245 377 1216
2018-10-14 12:13:37 GMT 39.710403 -76.405968 23,825 245 368 1536
2018-10-14 12:13:34 GMT 39.712643 -76.399841 23,850 245 374 1216
2018-10-14 12:13:31 GMT 39.714935 -76.393791 23,750 245 372 1216
2018-10-14 12:13:28 GMT 39.717865 -76.385971 23,725 245 367 2112
2018-10-14 12:13:24 GMT 39.720474 -76.378922 23,525 245 368 1408
2018-10-14 12:13:21 GMT 39.722809 -76.372711 23,625 245 368 1536
2018-10-14 12:13:17 GMT 39.726051 -76.363953 23,500 245 368 1536
2018-10-14 12:13:14 GMT 39.728519 -76.357361 23,300 245 367 2048
2018-10-14 12:13:09 GMT 39.732430 -76.346863 23,250 245 367 2240
2018-10-14 12:13:04 GMT 39.735455 -76.338745 23,050 245 367 2368
2018-10-14 12:13:01 GMT 39.739597 -76.327576 22,850 245 368 2432
2018-10-14 12:12:55 GMT 39.741970 -76.321228 22,500 245 371 2560
2018-10-14 12:12:51 GMT 39.745510 -76.311646 22,500 245 371 2560
2018-10-14 12:12:48 GMT 39.746933 -76.307869 22,325 245 371 2752
2018-10-14 12:12:44 GMT 39.749886 -76.299866 22,225 245 370 2752
2018-10-14 12:12:40 GMT 39.753189 -76.290833 22,100 245 371 2624
2018-10-14 12:12:37 GMT 39.755264 -76.285240 21,950 245 372 1984
2018-10-14 12:12:33 GMT 39.758011 -76.277779 21,700 245 372 2048
2018-10-14 12:12:30 GMT 39.762829 -76.264709 21,525 245 368 1472
2018-10-14 12:12:24 GMT 39.765152 -76.258255 21,525 245 369 1600
2018-10-14 12:12:19 GMT 39.768768 -76.248459 21,325 245 367 1472
2018-10-14 12:12:13 GMT 39.772930 -76.237122 21,250 245 366 1408
2018-10-14 12:12:08 GMT 39.776466 -76.227356 21,100 245 364 1472
2018-10-14 12:12:05 GMT 39.778423 -76.222046 21,075 245 363 1536
2018-10-14 12:12:01 GMT 39.781998 -76.212280 20,900 245 360 1856
2018-10-14 12:11:56 GMT 39.784847 -76.204407 20,850 245 360 1920
2018-10-14 12:11:53 GMT 39.786804 -76.198959 20,750 246 360 1984
2018-10-14 12:11:50 GMT 39.789276 -76.191620 20,650 248 357 2048
2018-10-14 12:11:44 GMT 39.792339 -76.180786 20,400 253 355 2112
2018-10-14 12:11:40 GMT 39.794632 -76.170601 20,225 256 353 2176
2018-10-14 12:11:35 GMT 39.796371 -76.160454 20,050 261 351 2304
2018-10-14 12:11:31 GMT 39.797562 -76.151253 19,875 262 352 2368
2018-10-14 12:11:27 GMT 39.798523 -76.143135 19,725 262 352 2240
2018-10-14 12:11:22 GMT 39.799942 -76.130836 19,525 262 350 1984
2018-10-14 12:11:19 GMT 39.800533 -76.125854 19,450 262 349 1920
2018-10-14 12:11:16 GMT 39.800995 -76.121941 19,400 262 349 1856
2018-10-14 12:11:11 GMT 39.802231 -76.111130 19,175 262 347 1856
2018-10-14 12:11:08 GMT 39.802910 -76.104980 19,125 262 344 1792
2018-10-14 12:11:05 GMT 39.803513 -76.100037 18,850 262 344 1792
2018-10-14 12:10:59 GMT 39.805328 -76.084229 18,825 262 341 1600
2018-10-14 12:10:55 GMT 39.806030 -76.078354 18,525 262 339 3008
2018-10-14 12:10:50 GMT 39.807083 -76.069214 18,525 262 339 2432
2018-10-14 12:10:47 GMT 39.807907 -76.062172 18,450 262 339 2752
2018-10-14 12:10:44 GMT 39.808456 -76.057098 18,250 262 339 3072
2018-10-14 12:10:40 GMT 39.809464 -76.048859 17,075 262 342 3904
2018-10-14 12:10:34 GMT 39.810883 -76.036255 16,525 262 347 2496
2018-10-14 12:10:29 GMT 39.812172 -76.024780 17,350 262 347 3200
2018-10-14 12:10:26 GMT 39.812714 -76.020256 17,300 262 348 3008
2018-10-14 12:10:23 GMT 39.813381 -76.014221 16,800 262 349 2624
2018-10-14 12:10:17 GMT 39.814919 -76.000977 16,525 262 347 2496
2018-10-14 12:10:13 GMT 39.815872 -75.992668 16,750 262 347 2496
2018-10-14 12:10:09 GMT 39.817711 -75.976379 16,475 262 346 2432
2018-10-14 12:10:05 GMT 39.817711 -75.976379 16,425 262 346 2368
2018-10-14 12:10:02 GMT 39.818298 -75.971237 16,325 262 345 2240
2018-10-14 12:09:59 GMT 39.819107 -75.964294 16,075 280 330 1472
2018-10-14 12:09:55 GMT 39.820133 -75.955261 16,025 262 344 2240
2018-10-14 12:09:52 GMT 39.820740 -75.949768 15,925 262 343 2368
2018-10-14 12:09:49 GMT 39.821762 -75.940552 15,750 262 342 2432
2018-10-14 12:09:45 GMT 39.822464 -75.934273 15,625 262 341 2368
2018-10-14 12:09:41 GMT 39.823288 -75.926994 15,475 262 339 2112
2018-10-14 12:09:38 GMT 39.824883 -75.912659 15,175 263 341 3008
2018-10-14 12:09:34 GMT 39.824883 -75.912659 15,225 262 338 1984
2018-10-14 12:09:31 GMT 39.825531 -75.906868 15,125 262 336 2048
2018-10-14 12:09:27 GMT 39.826172 -75.900658 14,975 262 334 2368
2018-10-14 12:09:24 GMT 39.827114 -75.892273 14,850 262 333 2624
2018-10-14 12:09:20 GMT 39.827728 -75.886749 12,850 263 342 3328
2018-10-14 12:09:16 GMT 39.828781 -75.877434 14,475 262 333 3456
2018-10-14 12:09:13 GMT 39.829445 -75.871521 14,325 262 333 3648
2018-10-14 12:09:10 GMT 39.830139 -75.864990 13,750 262 335 3968
2018-10-14 12:09:07 GMT 39.831024 -75.857178 13,800 262 336 3904
2018-10-14 12:09:04 GMT 39.831665 -75.851578 13,625 262 337 3904
2018-10-14 12:09:00 GMT 39.832581 -75.842918 13,350 262 339 3904
2018-10-14 12:08:56 GMT 39.833260 -75.837097 13,150 262 340 3840
2018-10-14 12:08:52 GMT 39.834099 -75.829163 12,925 263 342 3392
2018-10-14 12:08:47 GMT 39.836151 -75.808830 12,550 264 342 2944
2018-10-14 12:08:43 GMT 39.836151 -75.808830 12,350 266 341 2880
2018-10-14 12:08:39 GMT 39.836426 -75.802673 12,175 270 342 2816
2018-10-14 12:08:35 GMT 39.836426 -75.793663 12,050 273 341 2688
2018-10-14 12:08:32 GMT 39.836243 -75.788765 11,950 276 340 2560
2018-10-14 12:08:29 GMT 39.835556 -75.780411 11,750 279 339 2368
2018-10-14 12:08:25 GMT 39.834732 -75.773361 11,650 280 338 2304
2018-10-14 12:08:22 GMT 39.832794 -75.757996 11,450 280 335 2048
2018-10-14 12:08:18 GMT 39.832794 -75.757996 11,375 280 333 1856
2018-10-14 12:08:14 GMT 39.832077 -75.752464 11,300 280 331 1536
2018-10-14 12:08:11 GMT 39.831352 -75.746582 11,225 280 324 1152
2018-10-14 12:08:08 GMT 39.830612 -75.740761 11,100 280 323 1152
2018-10-14 12:08:05 GMT 39.829815 -75.734436 11,100 280 320 1152
2018-10-14 12:08:01 GMT 39.828793 -75.726318 11,000 280 314 1152
2018-10-14 12:07:58 GMT 39.828186 -75.721474 10,975 280 303 1216
2018-10-14 12:07:54 GMT 39.827023 -75.712341 10,875 280 305 1216
2018-10-14 12:07:50 GMT 39.826279 -75.706360 10,800 280 299 1280
2018-10-14 12:07:44 GMT 39.825027 -75.696281 10,675 280 293 1408
2018-10-14 12:07:39 GMT 39.823929 -75.687798 10,550 280 287 1664
2018-10-14 12:07:35 GMT 39.822876 -75.679321 10,425 280 282 1856
2018-10-14 12:07:29 GMT 39.821716 -75.670349 10,250 280 277 1984
2018-10-14 12:07:26 GMT 39.821297 -75.666931 10,125 280 273 1920
2018-10-14 12:07:23 GMT 39.819534 -75.653168 9,975 280 267 1792
2018-10-14 12:07:18 GMT 39.819534 -75.653168 9,900 280 267 1792
2018-10-14 12:07:14 GMT 39.818619 -75.645943 9,800 280 265 960
2018-10-14 12:07:07 GMT 39.817474 -75.636986 9,750 280 265 320
2018-10-14 12:07:04 GMT 39.816547 -75.629578 9,725 280 265 0
2018-10-14 12:07:00 GMT 39.815918 -75.624870 9,725 280 264 0
2018-10-14 12:06:57 GMT 39.815323 -75.620148 9,725 280 264 0
2018-10-14 12:06:53 GMT 39.814545 -75.613892 9,725 280 264 0
2018-10-14 12:06:50 GMT 39.814034 -75.609985 9,750 280 264 0
2018-10-14 12:06:46 GMT 39.813244 -75.603882 9,750 280 264 -64
2018-10-14 12:06:43 GMT 39.812496 -75.598083 9,750 280 263 0
2018-10-14 12:06:39 GMT 39.811707 -75.591797 9,750 280 263 0
2018-10-14 12:06:36 GMT 39.811203 -75.587906 9,750 280 263 0
2018-10-14 12:06:33 GMT 39.810356 -75.581177 9,750 280 263 0
2018-10-14 12:06:30 GMT 39.809799 -75.576660 9,750 280 263 0
2018-10-14 12:06:25 GMT 39.808960 -75.570251 9,750 280 263 -64
2018-10-14 12:06:22 GMT 39.807842 -75.561218 9,750 280 263 0
2018-10-14 12:06:14 GMT 39.806625 -75.551727 9,725 280 263 64
2018-10-14 12:06:11 GMT 39.805023 -75.538231 9,700 279 264 768
2018-10-14 12:06:04 GMT 39.805023 -75.538231 9,700 279 264 448
2018-10-14 12:06:01 GMT 39.804306 -75.532288 9,650 279 264 768
2018-10-14 12:05:55 GMT 39.803192 -75.523064 9,550 279 265 1216
2018-10-14 12:05:49 GMT 39.802212 -75.515198 9,425 280 266 1600
2018-10-14 12:05:44 GMT 39.801132 -75.506226 9,150 279 265 2304
2018-10-14 12:05:39 GMT 39.800209 -75.498657 9,100 279 264 2496
2018-10-14 12:05:34 GMT 39.799232 -75.490173 8,750 279 260 3072
2018-10-14 12:05:30 GMT 39.798386 -75.483063 8,600 279 259 3136
2018-10-14 12:05:26 GMT 39.797836 -75.478287 8,450 279 258 3200
2018-10-14 12:05:23 GMT 39.796623 -75.467407 7,950 280 254 4096
2018-10-14 12:05:20 GMT 39.796623 -75.467407 8,025 279 256 3392
2018-10-14 12:05:16 GMT 39.796066 -75.462708 7,675 279 255 3392
2018-10-14 12:05:12 GMT 39.795319 -75.456299 7,625 279 255 3392
2018-10-14 12:05:09 GMT 39.794678 -75.450996 7,425 280 254 3520
2018-10-14 12:05:06 GMT 39.794250 -75.447693 7,250 280 254 4032
2018-10-14 12:05:02 GMT 39.793411 -75.440918 7,000 280 254 4032
2018-10-14 12:04:58 GMT 39.792622 -75.435181 6,775 280 255 4096
2018-10-14 12:04:55 GMT 39.792202 -75.431885 6,525 278 256 4096
2018-10-14 12:04:52 GMT 39.791656 -75.426399 6,225 271 257 3648
2018-10-14 12:04:49 GMT 39.791454 -75.422668 6,225 271 257 3648
2018-10-14 12:04:46 GMT 39.791794 -75.414810 5,925 262 256 3712
2018-10-14 12:04:41 GMT 39.792805 -75.408447 5,650 255 257 3904
2018-10-14 12:04:37 GMT 39.793877 -75.403931 5,450 249 257 3904
2018-10-14 12:04:34 GMT 39.795506 -75.398926 5,200 245 257 3776
2018-10-14 12:04:31 GMT 39.797470 -75.394333 5,025 239 257 3584
2018-10-14 12:04:26 GMT 39.799881 -75.389709 4,625 233 256 3328
2018-10-14 12:04:23 GMT 39.802460 -75.385262 4,625 233 255 3456
2018-10-14 12:04:20 GMT 39.805141 -75.380615 4,400 234 254 3776
2018-10-14 12:04:12 GMT 39.814178 -75.364357 3,675 235 254 3584
2018-10-14 12:04:07 GMT 39.814178 -75.364357 3,575 235 254 3264
2018-10-14 12:04:04 GMT 39.816456 -75.360168 3,400 236 252 2944
2018-10-14 12:03:59 GMT 39.819340 -75.354797 3,200 236 248 2432
2018-10-14 12:03:52 GMT 39.823391 -75.347290 2,950 236 241 2240
2018-10-14 12:03:48 GMT 39.826046 -75.342285 2,800 235 236 2112
2018-10-14 12:03:43 GMT 39.829815 -75.335449 2,625 235 227 1856
2018-10-14 12:03:37 GMT 39.832516 -75.330505 2,475 235 220 1728
2018-10-14 12:03:31 GMT 39.836380 -75.323639 2,300 234 209 1344
2018-10-14 12:03:26 GMT 39.838894 -75.319153 2,200 235 202 1600
2018-10-14 12:03:21 GMT 39.841873 -75.313782 2,050 236 195 1856
2018-10-14 12:03:17 GMT 39.844200 -75.309448 1,900 236 188 1856
2018-10-14 12:03:12 GMT 39.847000 -75.304115 1,725 236 185 1856

Making use of Plane Finder data

You are free to use the raw flight data, aircraft information and images provided in this report for your own purposes provided the data is correctly attributed to Plane Finder. We ask that you please credit Plane Finder and link to planefinder.net in close proximity to the content.

Optionally one of the following logos (no smaller then 150x24px) can be used and must link to planefinder.net

Embedding the Plane Finder map

You are welcome to embed the Plane Finder playback map on your website to offer visitors a more interactive experience. We suggest using the following HTML code:

<iframe src="//planefinder.net/data/report/AA1866-N717UW-7700-squawk-2018-10-14/map" width="800" height="600" seamless="seamless"></iframe>

Where our data comes from

Plane Finder has a global network of data feeds and antenna radars that receive data broadcast directly from aircraft. The primary technologies used are ADS-B and MLAT. We also show feeds from the FAA and a FLARM glider feed.

Click here to find out more about the Plane Finder network.

How we collect our data